Time;durP1;ratioP1;P1;durP2;ratioP2;P2;SDS_P1;SDS_P2;PMS_P1;PMS_P2;Temp;Humidity;BMP_temperature;BMP_pressure;BME280_temperature;BME280_humidity;BME280_pressure;Samples;Min_cycle;Max_cycle;Signal;HPM_P1;HPM_P2
2023/01/03 00:02:19;;;;;;;4.70;2.55;;;;;;;16.85;66.54;97697.81;10372432;28;20284;-25
2023/01/03 00:07:32;;;;;;;4.53;2.20;;;;;;;16.87;66.38;97710.47;10366681;28;20022;-24
2023/01/03 00:12:33;;;;;;;4.43;2.55;;;;;;;16.82;67.02;97699.41;10370375;28;20505;-24
2023/01/03 00:17:34;;;;;;;3.20;2.42;;;;;;;16.86;66.55;97709.63;10365944;28;20026;-25
2023/01/03 00:22:34;;;;;;;3.20;2.20;;;;;;;16.85;66.74;97714.63;10370623;28;20029;-25
2023/01/03 00:27:35;;;;;;;3.80;2.15;;;;;;;16.86;66.48;97711.28;10361685;28;20489;-26
2023/01/03 00:32:35;;;;;;;5.30;2.50;;;;;;;16.86;66.80;97708.75;10369559;28;20030;-25
2023/01/03 00:37:36;;;;;;;6.83;2.57;;;;;;;16.85;66.79;97709.59;10369665;28;20089;-25
2023/01/03 00:43:27;;;;;;;3.72;2.10;;;;;;;16.84;67.01;97713.78;10361627;28;20030;-26
2023/01/03 00:47:56;;;;;;;5.22;2.50;;;;;;;16.85;66.63;97709.59;10368396;28;20038;-25
2023/01/03 00:52:57;;;;;;;4.60;2.40;;;;;;;16.84;66.20;97711.25;10370165;28;20397;-24
2023/01/03 00:57:57;;;;;;;4.73;2.37;;;;;;;16.85;66.23;97705.38;10360644;28;20285;-25
2023/01/03 01:02:57;;;;;;;4.03;2.93;;;;;;;16.83;66.70;97696.06;10370011;28;20034;-25
2023/01/03 01:07:58;;;;;;;6.53;3.10;;;;;;;16.85;66.83;97696.94;10361672;28;20042;-25
2023/01/03 01:12:58;;;;;;;4.43;2.40;;;;;;;16.88;66.74;97697.00;10360581;28;20293;-24
2023/01/03 01:17:58;;;;;;;3.60;2.40;;;;;;;16.87;66.28;97692.75;10364952;28;20289;-24
2023/01/03 01:22:59;;;;;;;3.23;2.27;;;;;;;16.85;66.55;97699.47;10368301;28;20041;-25
2023/01/03 01:27:59;;;;;;;2.33;1.80;;;;;;;16.85;66.41;97710.44;10359455;28;20398;-24
2023/01/03 01:33:00;;;;;;;4.22;2.38;;;;;;;16.85;66.56;97704.53;10360414;28;20288;-25
2023/01/03 01:38:00;;;;;;;3.40;2.03;;;;;;;16.84;66.43;97702.81;10362362;28;20084;-25
2023/01/03 01:48:32;;;;;;;2.30;1.90;;;;;;;16.85;66.35;97734.88;10366719;28;20038;-25
2023/01/03 01:53:35;;;;;;;5.47;2.90;;;;;;;16.83;66.10;97723.88;10366667;28;20088;-25
2023/01/03 01:58:38;;;;;;;5.80;2.53;;;;;;;16.83;66.15;97726.41;10366639;28;20026;-26
2023/01/03 02:03:41;;;;;;;3.45;2.10;;;;;;;16.82;66.08;97723.00;10367949;28;20025;-25
2023/01/03 02:08:41;;;;;;;3.85;2.20;;;;;;;16.82;66.31;97724.69;10366259;28;20466;-25
2023/01/03 02:14:42;;;;;;;3.05;1.67;;;;;;;16.83;66.35;97718.81;10362502;28;20117;-25
2023/01/03 02:19:58;;;;;;;4.28;2.22;;;;;;;16.84;66.63;97735.69;10335406;28;20089;-26
2023/01/03 02:25:49;;;;;;;3.90;1.90;;;;;;;16.86;66.63;97741.63;10348285;28;20085;-26
2023/01/03 02:31:03;;;;;;;2.85;1.70;;;;;;;16.86;66.38;97749.22;10349146;28;20058;-25
2023/01/03 02:36:21;;;;;;;2.22;1.73;;;;;;;16.85;66.12;97748.38;10373358;28;20041;-25
2023/01/03 02:41:40;;;;;;;2.15;1.55;;;;;;;16.85;65.98;97745.00;10360104;28;20070;-25
2023/01/03 02:46:50;;;;;;;3.38;1.98;;;;;;;16.83;66.18;97741.56;10374670;28;20030;-26
2023/01/03 02:51:59;;;;;;;2.65;1.90;;;;;;;16.82;66.14;97740.72;10395844;28;20059;-26
2023/01/03 02:57:05;;;;;;;4.03;1.92;;;;;;;16.82;65.94;97729.75;10379784;28;20033;-24
2023/01/03 03:02:09;;;;;;;3.83;2.47;;;;;;;16.82;65.71;97729.75;10386094;28;20051;-25
2023/01/03 03:07:19;;;;;;;2.35;1.75;;;;;;;16.83;65.88;97736.53;10384482;28;20065;-25
2023/01/03 03:17:43;;;;;;;2.83;1.70;;;;;;;16.86;65.46;97734.03;10397091;28;20029;-25
2023/01/03 03:33:34;;;;;;;7.05;2.40;;;;;;;16.89;65.55;97731.59;10379219;28;20045;-26
2023/01/03 03:38:41;;;;;;;3.15;1.55;;;;;;;16.91;65.89;97735.03;10389410;28;20021;-25
2023/01/03 03:49:37;;;;;;;2.15;1.60;;;;;;;16.86;64.98;97727.34;10376847;28;20045;-24
2023/01/03 03:54:43;;;;;;;2.90;1.77;;;;;;;16.88;65.50;97719.75;10378582;28;20485;-25
2023/01/03 04:00:00;;;;;;;3.23;1.40;;;;;;;16.85;65.57;97714.63;10381798;28;20544;-25
2023/01/03 04:05:04;;;;;;;3.13;2.22;;;;;;;16.86;65.33;97731.53;10375045;28;20042;-26
2023/01/03 04:10:06;;;;;;;3.30;2.05;;;;;;;16.85;65.39;97739.94;10374313;28;20033;-25
2023/01/03 04:15:07;;;;;;;3.38;1.60;;;;;;;16.86;65.50;97731.53;10384901;28;20037;-26
2023/01/03 04:20:08;;;;;;;1.92;1.58;;;;;;;16.84;65.18;97735.69;10377019;28;20164;-24
2023/01/03 04:25:09;;;;;;;1.90;1.45;;;;;;;16.82;65.55;97723.00;10382209;28;20473;-27
2023/01/03 04:30:10;;;;;;;4.07;1.73;;;;;;;16.82;65.21;97724.69;10388628;28;20049;-25
2023/01/03 04:35:10;;;;;;;2.10;1.80;;;;;;;16.81;65.38;97728.06;10371780;28;20509;-25
2023/01/03 04:40:11;;;;;;;2.50;1.97;;;;;;;16.83;65.19;97736.53;10371822;28;20038;-24
2023/01/03 04:45:11;;;;;;;3.23;1.30;;;;;;;16.88;65.53;97740.00;10388978;28;20072;-25
2023/01/03 04:50:12;;;;;;;1.90;1.20;;;;;;;16.90;65.29;97738.38;10383477;28;20785;-25
2023/01/03 04:55:12;;;;;;;2.90;2.60;;;;;;;16.92;65.37;97741.78;10388414;28;20461;-26
2023/01/03 05:00:13;;;;;;;3.80;1.60;;;;;;;16.95;64.10;97749.44;10381947;28;20288;-27
2023/01/03 05:05:13;;;;;;;2.10;1.52;;;;;;;16.96;63.65;97748.59;10370130;28;20033;-24
2023/01/03 05:10:14;;;;;;;3.75;2.05;;;;;;;16.98;63.52;97741.94;10379436;28;20485;-26
2023/01/03 05:15:14;;;;;;;2.08;1.55;;;;;;;16.98;63.54;97749.50;10369293;28;20045;-24
2023/01/03 05:25:49;;;;;;;1.75;1.20;;;;;;;16.97;63.50;97753.72;10372833;28;20087;-25
2023/01/03 05:30:49;;;;;;;2.20;1.50;;;;;;;16.98;63.83;97769.75;10368783;28;20038;-25
2023/01/03 05:35:49;;;;;;;2.83;1.63;;;;;;;16.95;63.98;97770.53;10358432;28;20034;-24
2023/01/03 05:40:50;;;;;;;1.93;1.40;;;;;;;16.97;63.45;97765.47;10361090;28;20032;-24
2023/01/03 05:45:51;;;;;;;2.60;1.48;;;;;;;16.99;63.34;97779.03;10349852;28;20505;-25
2023/01/03 05:50:54;;;;;;;4.78;2.53;;;;;;;17.04;63.27;97787.56;10347200;28;20034;-26
2023/01/03 05:55:55;;;;;;;2.50;1.67;;;;;;;16.90;61.78;97782.22;10355439;28;20071;-25
2023/01/03 06:00:55;;;;;;;6.83;2.07;;;;;;;16.92;64.12;97767.91;10357722;28;20048;-25
2023/01/03 06:06:01;;;;;;;6.57;2.13;;;;;;;16.98;65.04;97777.34;10361099;28;20030;-26
2023/01/03 06:11:06;;;;;;;5.93;2.13;;;;;;;16.96;65.09;97779.81;10357198;28;20465;-25
2023/01/03 06:21:31;;;;;;;3.55;1.80;;;;;;;16.94;64.56;97795.78;10376307;28;20068;-25
2023/01/03 06:26:32;;;;;;;4.88;1.60;;;;;;;16.95;64.81;97807.59;10378179;28;20120;-26
2023/01/03 06:31:33;;;;;;;7.57;2.03;;;;;;;16.95;64.99;97812.66;10381565;28;20506;-26
2023/01/03 06:36:33;;;;;;;4.10;1.80;;;;;;;16.95;65.12;97812.66;10372100;28;20022;-25
2023/01/03 06:41:33;;;;;;;4.50;1.90;;;;;;;16.93;65.20;97809.25;10361427;28;20030;-27
2023/01/03 06:57:14;;;;;;;2.85;1.63;;;;;;;16.90;64.90;97814.25;10378635;28;20508;-25
2023/01/03 07:02:14;;;;;;;5.00;1.75;;;;;;;16.88;65.20;97826.00;10368201;28;20120;-25
2023/01/03 07:07:15;;;;;;;2.88;1.45;;;;;;;16.91;64.86;97831.97;10352593;28;20034;-26
2023/01/03 07:17:36;;;;;;;2.28;1.45;;;;;;;16.91;65.01;97821.03;10365451;28;20164;-25
2023/01/03 07:22:37;;;;;;;3.07;1.30;;;;;;;16.91;65.31;97826.06;10370785;28;20167;-25
2023/01/03 07:27:37;;;;;;;2.33;1.60;;;;;;;16.92;65.14;97827.78;10371170;28;20041;-24
2023/01/03 07:32:37;;;;;;;2.10;1.57;;;;;;;16.90;64.65;97826.91;10382969;28;20047;-25
2023/01/03 07:37:38;;;;;;;2.60;1.33;;;;;;;16.89;64.63;97832.78;10368741;28;20104;-25
2023/01/03 07:47:57;;;;;;;2.47;1.83;;;;;;;16.86;64.75;97842.81;10374018;28;20120;-25
2023/01/03 07:52:58;;;;;;;1.50;1.40;;;;;;;16.88;64.92;97851.28;10378220;28;20069;-25
2023/01/03 07:57:59;;;;;;;1.57;1.10;;;;;;;16.87;64.75;97847.03;10377426;28;20041;-26
2023/01/03 08:02:59;;;;;;;3.30;2.00;;;;;;;16.85;65.13;97852.09;10369960;28;20119;-24
2023/01/03 08:08:00;;;;;;;1.87;1.40;;;;;;;16.89;64.69;97860.59;10364657;28;20062;-25
2023/01/03 08:13:19;;;;;;;2.55;1.77;;;;;;;16.91;65.02;97853.91;10370360;28;20163;-25
2023/01/03 08:18:26;;;;;;;2.80;2.08;;;;;;;16.90;63.58;97865.69;10376697;28;20513;-25
2023/01/03 08:23:28;;;;;;;4.35;1.90;;;;;;;16.77;63.36;97878.88;10361706;28;20022;-26
2023/01/03 08:28:29;;;;;;;31.75;16.90;;;;;;;16.85;60.92;97881.56;10361488;28;20041;-25
2023/01/03 08:33:34;;;;;;;14.55;7.88;;;;;;;16.78;60.44;97885.63;10366244;28;20043;-26
2023/01/03 08:38:41;;;;;;;14.98;6.97;;;;;;;16.69;59.21;97889.59;10379267;28;20095;-25
2023/01/03 08:43:43;;;;;;;14.27;7.72;;;;;;;16.60;59.39;97874.19;10367899;28;20033;-25
2023/01/03 08:48:45;;;;;;;18.63;7.35;;;;;;;16.46;58.72;97888.13;10380808;28;20044;-26
2023/01/03 08:53:45;;;;;;;22.30;10.23;;;;;;;16.63;59.21;97879.31;10378219;28;20034;-24
2023/01/03 08:58:46;;;;;;;22.73;10.73;;;;;;;16.82;59.12;97879.81;10364424;28;20520;-25
2023/01/03 09:03:46;;;;;;;33.83;16.97;;;;;;;16.91;59.59;97886.78;10367030;28;20065;-24
2023/01/03 09:08:46;;;;;;;34.27;16.00;;;;;;;16.97;59.87;97886.91;10364907;28;20030;-24
2023/01/03 09:13:47;;;;;;;29.43;15.83;;;;;;;17.01;59.97;97896.31;10363143;28;20072;-25
2023/01/03 09:18:47;;;;;;;24.93;13.10;;;;;;;17.04;59.73;97903.97;10362293;28;20130;-25
2023/01/03 09:23:47;;;;;;;25.50;14.63;;;;;;;17.03;60.09;97912.38;10368052;28;20314;-25
2023/01/03 09:28:48;;;;;;;27.87;13.00;;;;;;;17.05;59.66;97906.53;10366031;28;20107;-26
2023/01/03 09:33:48;;;;;;;29.17;14.13;;;;;;;17.07;59.97;97924.28;10366243;28;20284;-27
2023/01/03 09:38:48;;;;;;;25.13;12.40;;;;;;;17.09;59.89;97928.56;10367206;28;20272;-26
2023/01/03 09:43:56;;;;;;;21.77;11.50;;;;;;;17.13;60.07;97932.00;10366037;28;20091;-25
2023/01/03 09:48:57;;;;;;;25.13;12.88;;;;;;;17.11;60.61;97931.13;10366978;28;20113;-26
2023/01/03 10:05:04;;;;;;;22.75;11.98;;;;;;;17.05;60.89;97936.91;10366502;28;20128;-26
2023/01/03 10:10:24;;;;;;;24.02;13.07;;;;;;;17.08;60.96;97926.84;10364189;28;20420;-25
2023/01/03 10:15:50;;;;;;;30.48;16.40;;;;;;;17.05;61.38;97923.38;10353122;28;20098;-24
2023/01/03 10:21:05;;;;;;;34.83;17.87;;;;;;;17.07;61.66;97932.72;10364782;28;20045;-25
2023/01/03 10:26:10;;;;;;;30.40;16.58;;;;;;;17.06;62.15;97927.66;10362082;28;20045;-25
2023/01/03 10:31:29;;;;;;;38.58;19.77;;;;;;;17.06;61.76;97933.53;10360835;28;20103;-24
2023/01/03 10:36:29;;;;;;;43.78;17.48;;;;;;;17.09;62.05;97932.78;10365407;28;20310;-26
2023/01/03 10:41:43;;;;;;;42.00;20.43;;;;;;;17.10;63.47;97934.47;10362802;28;20509;-25
2023/01/03 10:46:49;;;;;;;40.10;18.88;;;;;;;17.09;62.13;97918.44;10366243;28;20033;-25
2023/01/03 10:52:02;;;;;;;30.33;16.25;;;;;;;17.11;61.47;97916.81;10363989;28;20200;-24
2023/01/03 10:57:04;;;;;;;34.78;18.58;;;;;;;17.13;61.83;97910.09;10358124;28;20103;-26
2023/01/03 11:02:07;;;;;;;37.72;18.60;;;;;;;17.17;62.97;97922.00;10362744;28;20046;-25
2023/01/03 11:07:08;;;;;;;34.90;20.23;;;;;;;17.24;63.01;97916.28;10352749;28;20369;-26
2023/01/03 11:12:28;;;;;;;39.47;19.75;;;;;;;17.36;63.12;97923.34;10365623;28;20494;-26
2023/01/03 11:17:29;;;;;;;38.35;20.75;;;;;;;17.37;63.31;97914.91;10355463;28;20029;-26
2023/01/03 11:22:40;;;;;;;37.42;21.63;;;;;;;17.41;63.63;97914.19;10362919;28;20492;-25
2023/01/03 11:27:52;;;;;;;40.00;21.58;;;;;;;17.43;63.80;97905.81;10371741;28;20038;-26
2023/01/03 11:33:26;;;;;;;38.33;20.77;;;;;;;17.50;63.73;97891.59;10388070;28;20037;-26
2023/01/03 11:38:45;;;;;;;43.28;21.27;;;;;;;17.53;64.21;97904.31;10364760;28;20484;-26
2023/01/03 11:44:06;;;;;;;35.88;18.70;;;;;;;17.56;63.67;97896.81;10372071;28;20025;-26
2023/01/03 11:49:19;;;;;;;36.17;18.65;;;;;;;17.57;63.70;97893.44;10364321;28;20561;-25
2023/01/03 11:54:46;;;;;;;32.17;17.05;;;;;;;17.63;63.44;97883.44;10369868;28;20505;-25
2023/01/03 12:00:04;;;;;;;33.88;17.08;;;;;;;17.70;63.47;97891.22;10358885;28;20061;-28
2023/01/03 12:05:38;;;;;;;35.13;19.38;;;;;;;17.65;63.73;97886.88;10369819;28;20052;-26
2023/01/03 12:10:49;;;;;;;30.08;15.07;;;;;;;17.71;64.20;97881.94;10366417;28;20033;-24
2023/01/03 12:16:01;;;;;;;34.67;16.65;;;;;;;17.74;64.74;97875.25;10370652;28;20038;-25
2023/01/03 12:21:11;;;;;;;66.65;23.30;;;;;;;17.79;64.61;97868.63;10368059;28;20509;-25
2023/01/03 12:26:14;;;;;;;43.88;19.50;;;;;;;17.76;64.71;97875.28;10364706;28;20085;-26
2023/01/03 12:31:32;;;;;;;49.50;18.67;;;;;;;17.83;64.38;97877.13;10371276;28;20081;-25
2023/01/03 12:36:35;;;;;;;39.58;16.23;;;;;;;17.68;63.99;97867.50;10363521;28;20038;-25
2023/01/03 12:41:45;;;;;;;35.58;15.48;;;;;;;17.66;64.07;97881.00;10365941;28;20049;-25
2023/01/03 12:46:51;;;;;;;38.60;16.48;;;;;;;17.61;64.08;97869.91;10370411;28;20666;-26
2023/01/03 12:51:52;;;;;;;29.45;15.35;;;;;;;17.58;63.89;97869.84;10367795;28;20042;-26
2023/01/03 12:56:52;;;;;;;33.70;15.20;;;;;;;17.56;63.44;97866.44;10368472;28;20493;-26
2023/01/03 13:01:57;;;;;;;29.08;14.63;;;;;;;17.51;64.01;97853.63;10369683;28;20033;-25
2023/01/03 13:07:04;;;;;;;31.40;14.43;;;;;;;17.53;63.56;97856.22;10369003;28;20117;-25
2023/01/03 13:12:11;;;;;;;26.90;13.25;;;;;;;17.50;63.99;97848.56;10367971;28;20386;-25
2023/01/03 13:17:16;;;;;;;24.27;13.35;;;;;;;17.47;63.67;97845.94;10368815;28;20070;-27
2023/01/03 13:22:34;;;;;;;27.83;12.50;;;;;;;17.48;63.70;97852.75;10364030;28;20482;-26
2023/01/03 13:27:46;;;;;;;24.88;12.55;;;;;;;17.46;63.42;97849.31;10362363;28;20046;-26
2023/01/03 13:33:10;;;;;;;27.50;12.65;;;;;;;17.46;63.61;97859.44;10368239;28;20285;-25
2023/01/03 13:38:28;;;;;;;25.73;11.75;;;;;;;17.45;63.32;97857.72;10355519;28;20052;-27
2023/01/03 13:43:34;;;;;;;22.40;13.13;;;;;;;17.43;63.41;97861.91;10367143;28;20042;-25
2023/01/03 13:48:39;;;;;;;21.88;11.75;;;;;;;17.42;63.11;97853.44;10366735;28;20485;-26
2023/01/03 13:54:03;;;;;;;23.42;11.05;;;;;;;17.43;62.94;97855.19;10367642;28;20049;-27
2023/01/03 13:59:13;;;;;;;22.10;11.07;;;;;;;17.45;62.80;97855.19;10365942;28;20545;-26
2023/01/03 14:05:01;;;;;;;22.30;12.20;;;;;;;17.43;62.92;97849.25;10362150;28;20065;-26
2023/01/03 14:10:20;;;;;;;;;;;;;;;17.41;63.24;97855.97;10357816;28;20107;-25
2023/01/03 14:15:26;;;;;;;21.98;12.30;;;;;;;17.40;62.96;97855.09;10366340;28;19913;-25
2023/01/03 14:20:34;;;;;;;18.75;11.35;;;;;;;17.39;63.34;97852.50;10359507;28;20037;-25
2023/01/03 14:25:34;;;;;;;18.00;10.50;;;;;;;17.38;62.97;97845.75;10361874;28;20472;-25
2023/01/03 14:30:36;;;;;;;18.10;10.20;;;;;;;17.38;62.62;97849.16;10367625;28;20042;-25
2023/01/03 14:35:40;;;;;;;18.13;10.05;;;;;;;17.37;62.82;97849.09;10365611;28;20050;-25
2023/01/03 14:40:45;;;;;;;17.92;10.82;;;;;;;17.37;62.87;97856.69;10369350;28;20284;-26
2023/01/03 14:45:54;;;;;;;19.45;10.15;;;;;;;17.35;63.21;97845.66;10375425;28;20088;-25
2023/01/03 14:50:55;;;;;;;15.60;9.55;;;;;;;17.34;62.68;97842.25;10370328;28;20046;-26
2023/01/03 14:55:56;;;;;;;17.63;9.25;;;;;;;17.36;62.82;97848.25;10373056;28;20116;-26
2023/01/03 15:00:57;;;;;;;16.92;9.80;;;;;;;17.34;62.28;97849.00;10373582;28;20617;-24
2023/01/03 15:05:59;;;;;;;15.75;9.73;;;;;;;17.36;62.49;97867.66;10364798;28;20515;-25
2023/01/03 15:11:07;;;;;;;15.30;9.02;;;;;;;17.37;62.27;97869.34;10368057;28;20038;-24
2023/01/03 15:16:37;;;;;;;14.00;8.90;;;;;;;17.37;62.36;97870.22;10372801;28;20128;-25
2023/01/03 15:21:38;;;;;;;17.08;9.90;;;;;;;17.36;62.32;97855.84;10370704;28;20038;-26
2023/01/03 15:26:42;;;;;;;14.93;8.52;;;;;;;17.36;62.19;97863.44;10372329;28;20120;-25
2023/01/03 15:31:53;;;;;;;15.48;8.90;;;;;;;17.35;62.16;97865.91;10371849;28;20037;-25
2023/01/03 15:36:57;;;;;;;14.73;8.73;;;;;;;17.32;62.69;97866.69;10371134;28;20034;-25
2023/01/03 15:47:22;;;;;;;13.65;8.25;;;;;;;17.34;62.29;97889.50;10384944;28;20402;-24
2023/01/03 15:52:23;;;;;;;16.50;8.90;;;;;;;17.33;62.93;97891.16;10371396;28;20030;-26
2023/01/03 15:57:28;;;;;;;14.67;8.93;;;;;;;17.31;63.16;97900.41;10370832;28;20455;-26
2023/01/03 16:02:29;;;;;;;14.95;8.57;;;;;;;17.31;63.26;97900.41;10363818;28;20030;-25
2023/01/03 16:07:29;;;;;;;13.00;7.30;;;;;;;17.33;62.41;97908.88;10371284;28;20024;-26
2023/01/03 16:12:36;;;;;;;13.83;8.10;;;;;;;17.33;62.16;97913.94;10365546;28;20048;-26
2023/01/03 16:17:36;;;;;;;11.73;7.30;;;;;;;17.34;62.00;97918.19;10368528;28;20041;-25
2023/01/03 16:22:37;;;;;;;12.27;7.50;;;;;;;17.34;62.05;97913.13;10371377;28;20060;-26
2023/01/03 16:27:37;;;;;;;11.63;7.03;;;;;;;17.33;62.22;97913.13;10369494;28;20041;-24
2023/01/03 16:32:38;;;;;;;14.23;7.80;;;;;;;17.30;61.94;97913.91;10364069;28;20049;-25
2023/01/03 16:37:38;;;;;;;11.75;7.22;;;;;;;17.30;61.85;97923.16;10357814;28;20030;-25
2023/01/03 16:42:38;;;;;;;12.83;7.20;;;;;;;17.31;61.98;97923.19;10370529;28;20033;-26
2023/01/03 16:47:41;;;;;;;13.40;7.97;;;;;;;17.33;62.52;97919.00;10370024;28;20498;-26
2023/01/03 16:52:54;;;;;;;11.43;6.78;;;;;;;17.33;62.04;97915.66;10367654;28;20030;-25
2023/01/03 16:57:55;;;;;;;10.45;6.15;;;;;;;17.33;61.90;97908.06;10355446;28;20030;-27
2023/01/03 17:02:58;;;;;;;14.00;7.22;;;;;;;17.25;62.89;97919.66;10368608;28;20555;-26
2023/01/03 17:08:06;;;;;;;18.83;7.65;;;;;;;17.22;64.06;97933.09;10366618;28;20133;-24
2023/01/03 17:13:25;;;;;;;16.90;8.65;;;;;;;17.28;65.14;97945.03;10349294;28;20091;-25
2023/01/03 17:18:28;;;;;;;16.45;8.07;;;;;;;17.30;64.10;97946.81;10360195;28;20053;-25
2023/01/03 17:23:34;;;;;;;13.48;7.68;;;;;;;17.28;63.84;97947.56;10359367;28;20069;-29
2023/01/03 17:28:34;;;;;;;15.93;7.90;;;;;;;17.26;64.00;97956.81;10356272;28;20394;-27
2023/01/03 17:33:35;;;;;;;14.57;7.80;;;;;;;17.21;64.42;97960.91;10367489;28;20042;-25
2023/01/03 17:38:35;;;;;;;23.97;8.97;;;;;;;17.27;64.27;97953.47;10367876;28;20034;-25
2023/01/03 17:43:36;;;;;;;18.48;7.55;;;;;;;17.24;65.57;97953.41;10352535;28;20042;-25
2023/01/03 17:53:55;;;;;;;16.38;8.45;;;;;;;17.24;65.17;97945.81;10358168;28;20041;-26
2023/01/03 17:58:56;;;;;;;15.53;7.67;;;;;;;17.25;64.89;97939.91;10375071;28;20401;-27
2023/01/03 18:03:56;;;;;;;12.98;6.55;;;;;;;17.26;65.06;97939.94;10367986;28;20288;-25
2023/01/03 18:09:04;;;;;;;12.97;7.20;;;;;;;17.26;64.90;97952.59;10373414;28;20448;-25
2023/01/03 18:14:05;;;;;;;11.90;6.55;;;;;;;17.27;65.00;97954.34;10367876;28;20080;-25
2023/01/03 18:19:05;;;;;;;15.93;7.35;;;;;;;17.26;66.02;97954.28;10364314;28;20026;-24
2023/01/03 18:24:22;;;;;;;13.15;7.05;;;;;;;17.24;66.04;97958.47;10367885;28;20049;-24
2023/01/03 18:29:22;;;;;;;13.30;7.45;;;;;;;17.24;65.87;97954.22;10365864;28;20105;-25
2023/01/03 18:34:22;;;;;;;11.57;6.90;;;;;;;17.23;65.01;97961.81;10366126;28;20040;-24
2023/01/03 18:39:28;;;;;;;18.43;7.50;;;;;;;17.25;64.86;97965.22;10370424;28;20081;-25
2023/01/03 18:44:28;;;;;;;10.02;6.63;;;;;;;17.23;64.36;97956.75;10380569;28;20039;-27
2023/01/03 18:49:29;;;;;;;12.63;6.90;;;;;;;17.29;63.64;97951.81;10364995;28;20489;-25
2023/01/03 18:54:35;;;;;;;11.45;6.72;;;;;;;17.31;63.63;97957.78;10364879;28;20040;-25
2023/01/03 18:59:35;;;;;;;;;;;;;;;17.27;64.72;97951.81;10359682;28;20080;-27
2023/01/03 19:04:36;;;;;;;9.40;6.03;;;;;;;17.29;64.20;97956.88;10365723;28;19983;-27
2023/01/03 19:09:37;;;;;;;11.77;6.30;;;;;;;17.32;64.76;97956.97;10355474;28;20033;-27
2023/01/03 19:14:37;;;;;;;12.27;5.50;;;;;;;17.31;64.72;97975.50;10365059;28;20068;-26
2023/01/03 19:19:38;;;;;;;15.03;6.27;;;;;;;17.35;64.14;97985.75;10364099;28;20030;-25
2023/01/03 19:24:38;;;;;;;9.88;5.88;;;;;;;17.38;64.22;97987.50;10361489;28;20299;-27
2023/01/03 19:29:38;;;;;;;10.40;5.47;;;;;;;17.35;64.34;97973.09;10371747;28;20038;-25
2023/01/03 19:34:39;;;;;;;10.20;5.93;;;;;;;17.39;64.39;97979.09;10373189;28;20048;-25
2023/01/03 19:39:39;;;;;;;9.33;6.07;;;;;;;17.42;63.39;97981.72;10377092;28;20540;-25
2023/01/03 19:44:40;;;;;;;7.43;3.70;;;;;;;17.40;62.18;97975.75;10373212;28;20419;-25
2023/01/03 19:49:42;;;;;;;8.02;5.18;;;;;;;17.36;62.03;97969.78;10371796;28;20100;-27
2023/01/03 19:54:43;;;;;;;5.75;3.22;;;;;;;17.33;61.89;97968.81;10371404;28;20026;-28
2023/01/03 19:59:48;;;;;;;7.68;4.32;;;;;;;17.32;61.22;97970.47;10372360;28;20052;-26
2023/01/03 20:04:48;;;;;;;5.65;3.78;;;;;;;17.30;61.30;97973.78;10370648;28;20060;-25
2023/01/03 20:09:48;;;;;;;5.90;3.53;;;;;;;17.27;60.61;97988.91;10370410;28;20047;-25
2023/01/03 20:14:51;;;;;;;5.00;3.30;;;;;;;17.24;60.96;97988.84;10376843;28;20029;-24
2023/01/03 20:19:52;;;;;;;6.68;3.33;;;;;;;17.20;61.41;97984.50;10370775;28;20038;-27
2023/01/03 20:24:52;;;;;;;5.28;3.83;;;;;;;17.20;60.82;97980.31;10389625;28;20030;-26
2023/01/03 20:29:53;;;;;;;5.20;2.80;;;;;;;17.20;60.24;97971.84;10370791;28;20068;-25
2023/01/03 20:34:53;;;;;;;5.90;3.00;;;;;;;17.24;59.60;97977.00;10368811;28;20386;-26
2023/01/03 20:39:54;;;;;;;4.87;3.10;;;;;;;17.10;59.93;97974.97;10368518;28;20186;-25
2023/01/03 20:44:55;;;;;;;5.47;3.13;;;;;;;17.21;60.85;97974.41;10368439;28;20482;-24
2023/01/03 20:49:55;;;;;;;6.35;3.15;;;;;;;17.21;61.02;97974.41;10369323;28;20877;-27
2023/01/03 20:54:56;;;;;;;5.13;2.65;;;;;;;17.22;59.58;97976.13;10368074;28;20038;-27
2023/01/03 20:59:56;;;;;;;5.87;2.93;;;;;;;17.27;58.37;97978.78;10368385;28;20038;-26
2023/01/03 21:04:56;;;;;;;3.20;2.20;;;;;;;17.26;57.76;97977.91;10367791;28;20037;-26
2023/01/03 21:09:57;;;;;;;5.13;2.07;;;;;;;17.25;57.51;97975.34;10368101;28;20045;-26
2023/01/03 21:14:57;;;;;;;6.47;2.23;;;;;;;17.22;58.70;97960.94;10365894;28;20311;-26
2023/01/03 21:19:57;;;;;;;3.03;1.80;;;;;;;17.20;58.95;97966.78;10367647;28;20517;-26
2023/01/03 21:24:58;;;;;;;3.43;2.13;;;;;;;17.20;58.83;97964.25;10359847;28;20034;-25
2023/01/03 21:29:58;;;;;;;2.77;1.80;;;;;;;17.20;57.78;97957.53;10368427;28;20038;-25
2023/01/03 21:34:58;;;;;;;3.93;1.87;;;;;;;17.19;58.61;97950.75;10359455;28;20037;-26
2023/01/03 21:39:59;;;;;;;6.90;3.00;;;;;;;17.18;59.79;97958.31;10367314;28;20045;-26
2023/01/03 21:44:59;;;;;;;4.17;2.20;;;;;;;17.21;59.17;97948.25;10368315;28;20041;-24
2023/01/03 21:49:59;;;;;;;6.40;2.40;;;;;;;17.16;59.96;97950.66;10366357;28;20525;-26
2023/01/03 21:55:00;;;;;;;3.70;2.27;;;;;;;17.09;60.01;97928.56;10362100;28;20488;-25
2023/01/03 22:00:00;;;;;;;5.15;2.47;;;;;;;17.16;61.22;97934.63;10367881;28;20505;-25
2023/01/03 22:05:00;;;;;;;3.10;2.10;;;;;;;17.18;61.51;97933.00;10357950;28;20038;-27
2023/01/03 22:10:17;;;;;;;4.70;2.27;;;;;;;17.17;59.84;97936.34;10358905;28;20793;-25
2023/01/03 22:15:18;;;;;;;2.75;1.63;;;;;;;17.13;60.53;97935.41;10359530;28;20057;-26
2023/01/03 22:20:21;;;;;;;3.25;1.95;;;;;;;17.11;60.18;97932.00;10361709;28;20489;-26
2023/01/03 22:25:22;;;;;;;3.15;1.95;;;;;;;17.12;59.96;97935.38;10362353;28;20038;-26
2023/01/03 22:30:23;;;;;;;6.03;2.15;;;;;;;17.11;59.52;97941.25;10365531;28;20505;-26
2023/01/03 22:35:23;;;;;;;3.72;1.80;;;;;;;17.08;60.21;97936.13;10359416;28;20046;-27
2023/01/03 22:40:23;;;;;;;3.35;1.77;;;;;;;17.07;59.94;97944.53;10358134;28;20417;-26
2023/01/03 22:45:24;;;;;;;3.33;1.70;;;;;;;17.04;59.97;97947.84;10366727;28;20033;-26
2023/01/03 22:50:25;;;;;;;2.87;1.73;;;;;;;17.06;60.01;97942.81;10365992;28;20037;-26
2023/01/03 22:55:26;;;;;;;2.17;1.50;;;;;;;17.03;59.84;97953.72;10356979;28;20038;-25
2023/01/03 23:00:26;;;;;;;2.47;1.23;;;;;;;16.99;59.81;97956.13;10368615;28;20026;-26
2023/01/03 23:05:27;;;;;;;2.65;1.60;;;;;;;17.02;59.64;97948.63;10366346;28;20634;-25
2023/01/03 23:10:27;;;;;;;3.93;2.73;;;;;;;17.04;59.60;97936.84;10364883;28;20030;-25
2023/01/03 23:15:30;;;;;;;2.75;1.85;;;;;;;17.07;60.74;97942.84;10369828;28;20112;-26
2023/01/03 23:20:46;;;;;;;2.63;1.63;;;;;;;17.09;59.91;97935.31;10370089;28;20033;-25
2023/01/03 23:25:47;;;;;;;1.65;1.27;;;;;;;17.01;60.42;97940.19;10372588;28;20038;-27
2023/01/03 23:30:47;;;;;;;3.00;1.27;;;;;;;16.99;60.42;97935.91;10373706;28;20052;-25
2023/01/03 23:35:48;;;;;;;2.33;1.30;;;;;;;16.96;60.12;97930.75;10368787;28;20289;-25
2023/01/03 23:40:49;;;;;;;1.67;1.13;;;;;;;16.97;59.78;97922.31;10372301;28;20030;-26
2023/01/03 23:45:49;;;;;;;1.77;1.20;;;;;;;16.95;59.74;97917.25;10373503;28;20038;-26
2023/01/03 23:50:49;;;;;;;1.73;1.10;;;;;;;16.96;59.47;97916.44;10371613;28;20066;-26
2023/01/03 23:55:50;;;;;;;2.88;1.42;;;;;;;16.95;60.02;97909.66;10363101;28;20044;-28
